createdAt,value
2017-10-02T00:01:46.557Z,9.17
2017-10-02T00:03:47.520Z,8.83
2017-10-02T00:05:48.486Z,12.63
2017-10-02T00:07:50.183Z,11.37
2017-10-02T00:09:51.157Z,11.37
2017-10-02T00:11:52.113Z,9.17
2017-10-02T00:13:53.084Z,14.57
2017-10-02T00:15:54.785Z,14.50
2017-10-02T00:17:55.743Z,20.00
2017-10-02T00:19:56.704Z,12.80
2017-10-02T00:21:57.661Z,9.83
2017-10-02T00:23:58.638Z,14.90
2017-10-02T00:26:00.349Z,11.97
2017-10-02T00:28:01.305Z,11.13
2017-10-02T00:30:02.274Z,8.97
2017-10-02T00:32:03.423Z,14.50
2017-10-02T00:34:04.382Z,10.30
2017-10-02T00:36:06.161Z,13.53
2017-10-02T00:38:07.870Z,15.80
2017-10-02T00:40:08.857Z,13.37
2017-10-02T00:42:09.822Z,13.00
2017-10-02T00:44:10.780Z,8.30
2017-10-02T00:46:11.745Z,18.70
2017-10-02T00:48:12.701Z,12.53
2017-10-02T00:50:13.673Z,14.20
2017-10-02T00:52:14.649Z,8.73
2017-10-02T00:54:15.665Z,10.37
2017-10-02T00:56:16.629Z,14.30
2017-10-02T00:58:18.329Z,16.20
2017-10-02T01:00:19.284Z,17.50
2017-10-02T01:02:20.244Z,19.03
2017-10-02T01:04:21.948Z,18.87
2017-10-02T01:06:23.986Z,14.70
2017-10-02T01:08:24.961Z,11.97
2017-10-02T01:10:26.666Z,13.20
2017-10-02T01:12:27.645Z,10.00
2017-10-02T01:14:28.617Z,12.57
2017-10-02T01:16:30.330Z,12.27
2017-10-02T01:18:31.319Z,16.43
2017-10-02T01:20:32.377Z,9.00
2017-10-02T01:22:34.084Z,12.33
2017-10-02T01:24:35.027Z,9.53
2017-10-02T01:26:35.992Z,5.40
2017-10-02T01:28:36.964Z,12.83
2017-10-02T01:30:37.922Z,8.60
2017-10-02T01:32:39.648Z,12.53
2017-10-02T01:34:40.617Z,11.30
2017-10-02T01:36:41.585Z,8.43
2017-10-02T01:38:43.294Z,7.80
2017-10-02T01:40:44.254Z,11.73
2017-10-02T01:42:45.996Z,9.50
2017-10-02T01:44:46.961Z,9.80
2017-10-02T01:46:47.930Z,11.23
2017-10-02T01:48:48.905Z,6.83
2017-10-02T01:50:49.865Z,10.87
2017-10-02T01:52:50.849Z,13.33
2017-10-02T01:54:51.817Z,13.73
2017-10-02T01:56:52.777Z,11.83
2017-10-02T01:58:54.490Z,10.50
2017-10-02T02:00:55.450Z,11.97
2017-10-02T02:02:56.436Z,10.10
2017-10-02T02:04:58.138Z,10.83
2017-10-02T02:06:59.113Z,7.40
2017-10-02T02:09:00.097Z,11.90
2017-10-02T02:11:01.057Z,17.63
2017-10-02T02:13:02.029Z,8.03
2017-10-02T02:15:02.993Z,6.03
2017-10-02T02:17:03.957Z,9.33
2017-10-02T02:19:04.933Z,13.43
2017-10-02T02:21:05.894Z,4.80
2017-10-02T02:23:06.855Z,7.07
2017-10-02T02:25:07.819Z,5.47
2017-10-02T02:27:08.781Z,8.67
2017-10-02T02:29:09.749Z,10.90
2017-10-02T02:31:11.456Z,10.07
2017-10-02T02:33:12.423Z,10.47
2017-10-02T02:35:13.410Z,9.57
2017-10-02T02:37:15.124Z,7.93
2017-10-02T02:39:16.108Z,10.97
2017-10-02T02:41:17.823Z,10.30
2017-10-02T02:43:18.841Z,9.53
2017-10-02T02:45:19.817Z,14.43
2017-10-02T02:47:20.777Z,8.03
2017-10-02T02:49:21.745Z,9.27
2017-10-02T02:51:22.730Z,14.60
2017-10-02T02:53:23.720Z,13.50
2017-10-02T02:55:24.701Z,10.27
2017-10-02T02:57:26.396Z,14.23
2017-10-02T02:59:27.352Z,9.80
2017-10-02T03:01:28.317Z,10.70
2017-10-02T03:03:29.278Z,9.67
2017-10-02T03:05:30.245Z,12.07
2017-10-02T03:07:31.945Z,6.33
2017-10-02T03:09:32.892Z,7.70
2017-10-02T03:11:33.846Z,8.80
2017-10-02T03:13:34.805Z,8.60
2017-10-02T03:15:35.822Z,11.63
2017-10-02T03:17:36.772Z,10.60
2017-10-02T03:19:37.728Z,7.67
2017-10-02T03:21:38.693Z,5.87
2017-10-02T03:23:39.653Z,11.83
2017-10-02T03:25:40.677Z,5.27
2017-10-02T03:27:41.639Z,10.57
2017-10-02T03:29:42.592Z,11.87
2017-10-02T03:31:43.553Z,6.87
2017-10-02T03:33:45.248Z,8.37
2017-10-02T03:35:46.222Z,5.83
2017-10-02T03:37:47.197Z,8.20
2017-10-02T03:39:48.153Z,7.93
2017-10-02T03:41:49.849Z,10.73
2017-10-02T03:43:50.804Z,12.13
2017-10-02T03:45:51.764Z,9.60
2017-10-02T03:47:52.728Z,10.00
2017-10-02T03:49:53.685Z,10.67
2017-10-02T03:51:54.672Z,7.97
2017-10-02T03:53:55.620Z,10.97
2017-10-02T03:55:56.569Z,8.73
2017-10-02T03:57:57.550Z,6.00
2017-10-02T03:59:58.505Z,11.13
2017-10-02T04:01:59.474Z,7.67
2017-10-02T04:04:01.177Z,15.70
2017-10-02T04:06:02.137Z,7.53
2017-10-02T04:08:03.096Z,7.90
2017-10-02T04:10:04.214Z,6.40
2017-10-02T04:12:05.191Z,8.87
2017-10-02T04:14:06.152Z,9.50
2017-10-02T04:16:07.125Z,8.57
2017-10-02T04:18:08.834Z,7.27
2017-10-02T04:20:09.798Z,13.60
2017-10-02T04:22:10.753Z,8.67
2017-10-02T04:24:11.725Z,8.73
2017-10-02T04:26:13.457Z,11.67
2017-10-02T04:28:14.421Z,6.90
2017-10-02T04:30:15.380Z,6.40
2017-10-02T04:32:17.065Z,13.40
2017-10-02T04:34:18.013Z,10.40
2017-10-02T04:36:18.964Z,10.70
2017-10-02T04:38:22.936Z,13.23
2017-10-02T04:40:23.880Z,9.93
2017-10-02T04:42:24.832Z,11.73
2017-10-02T04:44:26.529Z,8.57
2017-10-02T04:46:27.472Z,10.03
2017-10-02T04:48:28.445Z,10.70
2017-10-02T04:50:29.413Z,6.50
2017-10-02T04:52:30.745Z,14.07
2017-10-02T04:54:31.836Z,9.20
2017-10-02T04:56:32.781Z,13.60
2017-10-02T04:58:33.740Z,5.87
2017-10-02T05:00:35.430Z,10.00
2017-10-02T05:02:36.364Z,9.30
2017-10-02T05:04:37.316Z,4.00
2017-10-02T05:06:38.261Z,16.03
2017-10-02T05:08:39.205Z,8.10
2017-10-02T05:10:40.152Z,7.83
2017-10-02T05:12:41.103Z,11.83
2017-10-02T05:14:42.069Z,9.48
2017-10-02T05:16:43.021Z,7.30
2017-10-02T05:18:43.965Z,4.23
2017-10-02T05:20:44.933Z,8.33
2017-10-02T05:22:45.896Z,9.37
2017-10-02T05:24:47.611Z,9.80
2017-10-02T05:26:48.580Z,14.33
2017-10-02T05:28:49.537Z,12.50
2017-10-02T05:30:50.505Z,8.33
2017-10-02T05:32:52.221Z,7.97
2017-10-02T05:34:53.266Z,10.40
2017-10-02T05:36:54.213Z,14.40
2017-10-02T05:38:55.182Z,11.20
2017-10-02T05:40:56.143Z,11.67
2017-10-02T05:42:57.869Z,9.90
2017-10-02T05:44:58.850Z,9.93
2017-10-02T05:47:00.545Z,9.27
2017-10-02T05:49:01.496Z,12.67
2017-10-02T05:51:02.449Z,13.07
2017-10-02T05:53:03.402Z,9.27
2017-10-02T05:55:04.365Z,10.83
2017-10-02T05:57:05.324Z,11.40
2017-10-02T05:59:06.571Z,6.33
2017-10-02T06:01:07.525Z,12.03
2017-10-02T06:03:08.477Z,9.47
2017-10-02T06:05:09.415Z,11.40
2017-10-02T06:07:10.365Z,13.60
2017-10-02T06:09:11.321Z,9.83
2017-10-02T06:11:13.021Z,9.90
2017-10-02T06:13:13.971Z,13.10
2017-10-02T06:15:14.925Z,9.40
2017-10-02T06:17:15.873Z,8.77
2017-10-02T06:19:16.833Z,9.80
2017-10-02T06:21:17.806Z,10.60
2017-10-02T06:23:18.762Z,9.97
2017-10-02T06:25:20.448Z,10.30
2017-10-02T06:27:21.421Z,9.90
2017-10-02T06:29:22.372Z,9.57
2017-10-02T06:31:23.344Z,9.77
2017-10-02T06:33:24.305Z,13.20
2017-10-02T06:35:26.004Z,9.57
2017-10-02T06:37:26.976Z,8.73
2017-10-02T06:39:27.929Z,8.87
2017-10-02T06:41:28.884Z,10.70
2017-10-02T06:43:29.859Z,9.27
2017-10-02T06:45:31.582Z,11.87
2017-10-02T06:47:32.558Z,14.30
2017-10-02T06:49:34.896Z,11.03
2017-10-02T06:51:36.682Z,10.07
2017-10-02T06:53:37.649Z,12.87
2017-10-02T06:55:39.375Z,9.30
2017-10-02T06:57:40.377Z,10.23
2017-10-02T06:59:42.126Z,11.93
2017-10-02T07:01:43.833Z,5.93
2017-10-02T07:03:44.790Z,8.83
2017-10-02T07:05:45.833Z,5.80
2017-10-02T07:07:46.800Z,10.23
2017-10-02T07:09:47.749Z,12.70
2017-10-02T07:11:48.701Z,9.70
2017-10-02T07:13:49.678Z,9.70
2017-10-02T07:15:51.368Z,11.03
2017-10-02T07:17:52.320Z,8.10
2017-10-02T07:19:53.273Z,11.27
2017-10-02T07:21:54.225Z,7.80
2017-10-02T07:23:55.200Z,7.53
2017-10-02T07:25:56.148Z,7.10
2017-10-02T07:27:57.117Z,10.47
2017-10-02T07:29:58.078Z,12.50
2017-10-02T07:31:59.021Z,10.57
2017-10-02T07:33:59.989Z,8.43
2017-10-02T07:36:00.944Z,8.20
2017-10-02T07:38:01.998Z,5.50
2017-10-02T07:40:02.945Z,12.67
2017-10-02T07:42:03.902Z,9.40
2017-10-02T07:44:05.041Z,8.40
2017-10-02T07:46:06.003Z,8.50
2017-10-02T07:48:06.960Z,7.10
2017-10-02T07:50:07.917Z,6.67
2017-10-02T07:52:10.001Z,6.97
2017-10-02T07:54:11.002Z,6.63
2017-10-02T07:56:11.953Z,7.17
2017-10-02T07:58:12.905Z,7.37
2017-10-02T08:00:13.869Z,5.23
2017-10-02T08:02:15.565Z,10.73
2017-10-02T08:04:16.523Z,9.47
2017-10-02T08:06:17.479Z,7.53
2017-10-02T08:08:18.430Z,8.93
2017-10-02T08:10:19.400Z,7.07
2017-10-02T08:12:20.350Z,7.97
2017-10-02T08:14:21.296Z,9.10
2017-10-02T08:16:22.258Z,6.97
2017-10-02T08:18:31.021Z,11.13
2017-10-02T08:20:31.986Z,13.40
2017-10-02T08:22:32.940Z,5.63
2017-10-02T08:24:33.897Z,9.03
2017-10-02T08:26:34.869Z,4.60
2017-10-02T08:28:36.565Z,6.10
2017-10-02T08:30:37.522Z,6.43
2017-10-02T08:32:38.478Z,7.30
2017-10-02T08:34:39.462Z,7.27
2017-10-02T08:36:41.287Z,7.57
2017-10-02T08:38:42.261Z,7.33
2017-10-02T08:40:43.217Z,10.57
2017-10-02T08:42:44.910Z,5.47
2017-10-02T08:44:45.868Z,8.80
2017-10-02T08:46:46.819Z,9.57
2017-10-02T08:48:47.797Z,6.73
2017-10-02T08:50:48.757Z,6.67
2017-10-02T08:52:50.505Z,4.77
2017-10-02T08:54:51.461Z,12.10
2017-10-02T08:56:53.193Z,6.90
2017-10-02T08:58:54.141Z,7.27
2017-10-02T09:00:55.103Z,5.53
2017-10-02T09:02:56.267Z,9.47
2017-10-02T09:04:57.222Z,11.37
2017-10-02T09:06:58.941Z,3.80
2017-10-02T09:08:59.892Z,7.27
2017-10-02T09:11:00.864Z,10.83
2017-10-02T09:13:01.826Z,6.93
2017-10-02T09:15:03.525Z,5.90
2017-10-02T09:17:04.540Z,5.90
2017-10-02T09:19:06.454Z,5.57
2017-10-02T09:21:07.426Z,5.10
2017-10-02T09:23:08.396Z,7.10
2017-10-02T09:25:10.098Z,5.40
2017-10-02T09:27:11.060Z,6.60
2017-10-02T09:29:12.013Z,7.17
2017-10-02T09:31:12.981Z,6.50
2017-10-02T09:33:13.937Z,5.90
2017-10-02T09:35:15.623Z,4.57
2017-10-02T09:37:16.592Z,3.60
2017-10-02T09:39:17.542Z,4.40
2017-10-02T09:41:18.500Z,6.37
2017-10-02T09:43:19.468Z,4.77
2017-10-02T09:45:20.539Z,8.20
2017-10-02T09:47:22.238Z,8.20
2017-10-02T09:49:23.200Z,4.20
2017-10-02T09:51:24.156Z,5.13
2017-10-02T09:53:25.121Z,4.70
2017-10-02T09:55:26.068Z,4.30
2017-10-02T09:57:27.021Z,4.90
2017-10-02T09:59:28.733Z,5.70
2017-10-02T10:01:29.684Z,7.00
2017-10-02T10:03:30.646Z,5.70
2017-10-02T10:05:31.605Z,6.60
2017-10-02T10:07:32.569Z,6.10
2017-10-02T10:09:33.533Z,5.60
2017-10-02T10:11:34.556Z,9.23
2017-10-02T10:13:35.552Z,6.10
2017-10-02T10:15:36.498Z,6.87
2017-10-02T10:17:37.472Z,5.63
2017-10-02T10:19:38.433Z,4.90
2017-10-02T10:21:39.406Z,12.00
2017-10-02T10:23:41.127Z,7.07
2017-10-02T10:25:42.092Z,5.77
2017-10-02T10:27:43.064Z,12.30
2017-10-02T10:29:44.760Z,13.10
2017-10-02T10:31:45.712Z,8.73
2017-10-02T10:33:46.664Z,7.93
2017-10-02T10:35:47.644Z,9.20
2017-10-02T10:37:48.603Z,7.43
2017-10-02T10:39:50.300Z,9.90
2017-10-02T10:41:51.261Z,8.87
2017-10-02T10:43:52.216Z,7.83
2017-10-02T10:45:53.957Z,7.30
2017-10-02T10:47:54.917Z,6.33
2017-10-02T10:49:55.873Z,9.43
2017-10-02T10:51:56.832Z,8.10
2017-10-02T10:53:57.787Z,7.63
2017-10-02T10:55:58.732Z,8.47
2017-10-02T10:57:59.682Z,11.50
2017-10-02T11:00:00.650Z,9.47
2017-10-02T11:02:02.357Z,10.77
2017-10-02T11:04:03.321Z,13.63
2017-10-02T11:06:04.279Z,10.33
2017-10-02T11:08:05.256Z,12.20
2017-10-02T11:10:06.302Z,11.30
2017-10-02T11:12:07.253Z,15.70
2017-10-02T11:14:08.244Z,9.40
2017-10-02T11:16:09.206Z,12.43
2017-10-02T11:18:10.289Z,16.33
2017-10-02T11:20:11.988Z,13.60
2017-10-02T11:22:12.937Z,14.25
2017-10-02T11:24:13.892Z,15.80
2017-10-02T11:26:14.897Z,14.63
2017-10-02T11:28:15.850Z,13.50
2017-10-02T11:30:16.817Z,16.70
2017-10-02T11:32:17.786Z,16.63
2017-10-02T11:34:19.483Z,23.53
2017-10-02T11:36:21.217Z,19.63
2017-10-02T11:38:22.169Z,17.30
2017-10-02T11:40:23.138Z,23.40
2017-10-02T11:42:24.832Z,22.30
2017-10-02T11:44:25.784Z,23.50
2017-10-02T11:46:26.740Z,18.33
2017-10-02T11:48:27.692Z,25.73
2017-10-02T11:50:28.640Z,16.60
2017-10-02T11:52:29.604Z,26.23
2017-10-02T11:54:30.595Z,23.43
2017-10-02T11:56:31.544Z,16.97
2017-10-02T11:58:32.502Z,16.83
2017-10-02T12:00:33.468Z,21.33
2017-10-02T12:02:34.433Z,12.67
2017-10-02T12:04:35.414Z,21.07
2017-10-02T12:06:37.113Z,20.07
2017-10-02T12:08:38.064Z,18.30
2017-10-02T12:10:39.021Z,14.40
2017-10-02T12:12:39.973Z,15.70
2017-10-02T12:14:40.953Z,20.90
2017-10-02T12:16:42.661Z,18.10
2017-10-02T12:18:43.621Z,13.13
2017-10-02T12:20:44.580Z,18.57
2017-10-02T12:22:45.536Z,19.03
2017-10-02T12:24:46.480Z,14.93
2017-10-02T12:26:47.450Z,15.20
2017-10-02T12:28:48.429Z,15.83
2017-10-02T12:30:49.382Z,14.70
2017-10-02T12:32:50.353Z,17.07
2017-10-02T12:34:51.321Z,14.87
2017-10-02T12:36:52.270Z,19.67
2017-10-02T12:38:53.231Z,17.40
2017-10-02T12:40:54.927Z,17.40
2017-10-02T12:42:55.904Z,15.20
2017-10-02T12:44:56.856Z,23.17
2017-10-02T12:46:57.808Z,19.13
2017-10-02T12:48:58.771Z,17.17
2017-10-02T12:51:00.477Z,19.30
2017-10-02T12:53:01.505Z,25.50
2017-10-02T12:55:02.477Z,16.87
2017-10-02T12:57:03.457Z,26.27
2017-10-02T12:59:04.417Z,20.90
2017-10-02T13:01:06.121Z,20.93
2017-10-02T13:03:07.081Z,19.13
2017-10-02T13:05:08.033Z,22.87
2017-10-02T13:07:15.893Z,23.20
2017-10-02T13:09:16.937Z,21.80
2017-10-02T13:11:18.640Z,27.43
2017-10-02T13:13:19.613Z,23.37
2017-10-02T13:15:20.585Z,25.17
2017-10-02T13:17:22.295Z,23.17
2017-10-02T13:19:23.268Z,23.90
2017-10-02T13:21:24.225Z,21.93
2017-10-02T13:23:25.176Z,23.33
2017-10-02T13:25:26.130Z,24.83
2017-10-02T13:27:27.849Z,30.70
2017-10-02T13:29:28.821Z,27.30
2017-10-02T13:31:29.786Z,26.33
2017-10-02T13:33:31.475Z,20.13
2017-10-02T13:35:32.449Z,27.43
2017-10-02T13:37:33.419Z,36.17
2017-10-02T13:39:34.391Z,25.40
2017-10-02T13:41:36.175Z,24.90
2017-10-02T13:43:37.128Z,34.00
2017-10-02T13:45:38.096Z,30.93
2017-10-02T13:47:39.062Z,26.63
2017-10-02T13:49:40.024Z,37.83
2017-10-02T13:51:41.006Z,18.50
2017-10-02T13:53:41.959Z,23.57
2017-10-02T13:55:42.916Z,25.27
2017-10-02T13:57:43.878Z,21.87
2017-10-02T13:59:44.826Z,30.53
2017-10-02T14:01:45.782Z,36.60
2017-10-02T14:03:46.790Z,32.93
2017-10-02T14:05:47.773Z,32.80
2017-10-02T14:07:48.733Z,34.90
2017-10-02T14:09:49.692Z,22.80
2017-10-02T14:11:51.398Z,41.37
2017-10-02T14:13:52.373Z,31.83
2017-10-02T14:15:53.338Z,31.40
2017-10-02T14:17:54.292Z,33.67
2017-10-02T14:19:55.976Z,30.47
2017-10-02T14:21:56.928Z,27.93
2017-10-02T14:23:57.885Z,34.13
2017-10-02T14:25:58.846Z,24.27
2017-10-02T14:27:59.808Z,36.67
2017-10-02T14:30:00.849Z,40.83
2017-10-02T14:32:01.817Z,46.03
2017-10-02T14:34:02.769Z,29.83
2017-10-02T14:36:03.719Z,34.20
2017-10-02T14:38:04.676Z,37.03
2017-10-02T14:40:06.360Z,31.97
2017-10-02T14:42:07.317Z,31.97
2017-10-02T14:44:08.265Z,28.37
2017-10-02T14:46:09.227Z,24.37
2017-10-02T14:48:10.192Z,34.00
2017-10-02T14:50:11.153Z,33.83
2017-10-02T14:52:13.601Z,29.60
2017-10-02T14:54:14.565Z,19.73
2017-10-02T14:56:15.549Z,33.43
2017-10-02T14:58:17.266Z,30.03
2017-10-02T15:00:18.241Z,31.00
2017-10-02T15:02:20.006Z,39.90
2017-10-02T15:04:20.997Z,24.63
2017-10-02T15:06:21.960Z,34.07
2017-10-02T15:08:22.919Z,33.97
2017-10-02T15:10:23.886Z,35.27
2017-10-02T15:12:24.851Z,44.23
2017-10-02T15:14:25.809Z,42.33
2017-10-02T15:16:26.761Z,37.40
2017-10-02T15:18:27.749Z,38.53
2017-10-02T15:20:28.718Z,32.07
2017-10-02T15:22:29.710Z,35.57
2017-10-02T15:24:30.657Z,32.10
2017-10-02T15:26:31.616Z,40.20
2017-10-02T15:28:32.585Z,38.57
2017-10-02T15:30:33.545Z,40.03
2017-10-02T15:32:34.509Z,38.70
2017-10-02T15:34:36.224Z,41.33
2017-10-02T15:36:37.174Z,39.58
2017-10-02T15:38:38.137Z,45.07
2017-10-02T15:40:39.902Z,35.47
2017-10-02T15:42:40.905Z,36.67
2017-10-02T15:44:41.868Z,34.87
2017-10-02T15:46:42.826Z,40.23
2017-10-02T15:48:43.784Z,41.10
2017-10-02T15:50:44.747Z,48.17
2017-10-02T15:52:46.432Z,48.20
2017-10-02T15:54:47.425Z,49.50
2017-10-02T15:56:49.126Z,49.50
2017-10-02T15:58:50.957Z,45.03
2017-10-02T16:00:51.916Z,42.63
2017-10-02T16:02:52.864Z,58.57
2017-10-02T16:04:53.835Z,52.63
2017-10-02T16:06:55.537Z,34.57
2017-10-02T16:08:56.500Z,42.40
2017-10-02T16:10:57.471Z,43.80
2017-10-02T16:12:58.435Z,59.57
2017-10-02T16:15:00.153Z,37.00
2017-10-02T16:17:01.175Z,51.40
2017-10-02T16:19:02.137Z,32.00
2017-10-02T16:21:03.106Z,41.23
2017-10-02T16:23:04.049Z,40.10
2017-10-02T16:25:05.013Z,48.53
2017-10-02T16:27:05.960Z,41.40
2017-10-02T16:29:06.922Z,43.60
2017-10-02T16:31:08.641Z,36.23
2017-10-02T16:33:09.589Z,51.20
2017-10-02T16:35:10.554Z,48.27
2017-10-02T16:37:11.546Z,41.93
2017-10-02T16:39:12.520Z,35.67
2017-10-02T16:41:13.497Z,40.93
2017-10-02T16:43:14.448Z,37.37
2017-10-02T16:45:15.434Z,38.20
2017-10-02T16:47:16.389Z,33.10
2017-10-02T16:49:17.360Z,44.37
2017-10-02T16:51:18.320Z,45.73
2017-10-02T16:53:19.273Z,35.30
2017-10-02T16:55:20.227Z,37.13
2017-10-02T16:57:23.129Z,53.70
2017-10-02T16:59:24.867Z,34.07
2017-10-02T17:01:25.995Z,31.97
2017-10-02T17:03:26.976Z,40.67
2017-10-02T17:05:28.673Z,39.55
2017-10-02T17:07:29.625Z,32.87
2017-10-02T17:09:30.583Z,47.23
2017-10-02T17:11:32.321Z,40.70
2017-10-02T17:13:33.304Z,37.93
2017-10-02T17:15:34.294Z,43.30
2017-10-02T17:17:36.067Z,39.37
2017-10-02T17:19:37.880Z,42.13
2017-10-02T17:21:39.378Z,25.90
2017-10-02T17:23:40.447Z,30.07
2017-10-02T17:25:41.402Z,57.30
2017-10-02T17:27:42.497Z,39.90
2017-10-02T17:29:43.449Z,45.25
2017-10-02T17:31:44.412Z,38.53
2017-10-02T17:33:46.240Z,36.23
2017-10-02T17:35:47.184Z,36.63
2017-10-02T17:37:48.169Z,39.60
2017-10-02T17:39:49.143Z,39.60
2017-10-02T17:41:50.190Z,36.30
2017-10-02T17:43:51.207Z,35.10
2017-10-02T17:45:52.668Z,42.80
2017-10-02T17:47:53.669Z,47.43
2017-10-02T17:49:55.182Z,35.87
2017-10-02T17:51:56.406Z,43.70
2017-10-02T17:53:57.392Z,43.40
2017-10-02T17:55:59.080Z,36.67
2017-10-02T17:58:00.053Z,54.00
2017-10-02T18:00:01.111Z,42.10
2017-10-02T18:02:02.085Z,39.47
2017-10-02T18:04:03.058Z,39.27
2017-10-02T18:06:04.010Z,39.10
2017-10-02T18:08:04.966Z,40.27
2017-10-02T18:10:05.930Z,36.77
2017-10-02T18:12:06.892Z,34.50
2017-10-02T18:14:07.853Z,43.07
2017-10-02T18:16:09.595Z,39.30
2017-10-02T18:18:10.554Z,46.47
2017-10-02T18:20:11.521Z,45.07
2017-10-02T18:22:13.205Z,45.50
2017-10-02T18:24:14.163Z,30.47
2017-10-02T18:26:15.157Z,43.97
2017-10-02T18:28:16.123Z,40.23
2017-10-02T18:30:17.845Z,41.87
2017-10-02T18:32:18.812Z,37.77
2017-10-02T18:34:19.771Z,50.23
2017-10-02T18:36:21.476Z,38.50
2017-10-02T18:38:22.438Z,52.83
2017-10-02T18:40:24.156Z,48.60
2017-10-02T18:42:25.120Z,40.00
2017-10-02T18:44:26.078Z,48.33
2017-10-02T18:46:27.062Z,47.90
2017-10-02T18:48:28.045Z,36.97
2017-10-02T18:50:29.762Z,31.87
2017-10-02T18:52:30.712Z,48.90
2017-10-02T18:54:31.681Z,48.87
2017-10-02T18:56:33.422Z,33.27
2017-10-02T18:58:34.374Z,40.33
2017-10-02T19:00:35.338Z,42.67
2017-10-02T19:02:37.050Z,50.40
2017-10-02T19:04:38.025Z,40.70
2017-10-02T19:06:39.049Z,41.57
2017-10-02T19:08:40.002Z,40.77
2017-10-02T19:10:41.045Z,47.67
2017-10-02T19:12:41.996Z,44.13
2017-10-02T19:14:42.999Z,39.30
2017-10-02T19:16:43.980Z,42.40
2017-10-02T19:18:44.950Z,42.53
2017-10-02T19:20:45.901Z,41.60
2017-10-02T19:22:46.885Z,33.83
2017-10-02T19:24:47.840Z,55.00
2017-10-02T19:26:48.831Z,35.27
2017-10-02T19:28:49.772Z,40.87
2017-10-02T19:30:50.732Z,41.77
2017-10-02T19:32:51.693Z,46.77
2017-10-02T19:34:53.391Z,36.20
2017-10-02T19:36:54.366Z,38.47
2017-10-02T19:38:55.337Z,34.23
2017-10-02T19:40:56.280Z,45.07
2017-10-02T19:42:57.248Z,56.37
2017-10-02T19:44:58.938Z,40.90
2017-10-02T19:46:59.917Z,43.53
2017-10-02T19:49:00.868Z,41.60
2017-10-02T19:51:01.837Z,48.40
2017-10-02T19:55:41.071Z,41.93
2017-10-02T19:57:43.348Z,42.27
2017-10-02T20:00:09.070Z,39.93
2017-10-02T20:02:10.106Z,48.00
2017-10-02T20:04:11.102Z,44.83
2017-10-02T20:06:12.061Z,37.03
2017-10-02T20:08:13.767Z,31.00
2017-10-02T20:12:45.317Z,39.50
2017-10-02T20:14:46.273Z,43.67
2017-10-02T20:16:47.282Z,38.53
2017-10-02T20:21:37.037Z,52.53
2017-10-02T20:23:38.067Z,40.83
2017-10-02T20:30:57.896Z,42.40
2017-10-02T20:38:27.056Z,47.10
2017-10-02T20:43:07.276Z,44.77
2017-10-02T20:45:08.363Z,50.33
2017-10-02T20:49:37.232Z,49.38
2017-10-02T20:51:38.985Z,50.27
2017-10-02T20:53:40.051Z,45.47
2017-10-02T20:57:59.411Z,40.77
2017-10-02T21:02:38.892Z,45.80
2017-10-02T21:04:40.039Z,47.50
2017-10-02T21:06:41.520Z,30.93
2017-10-02T21:19:03.708Z,44.30
2017-10-02T21:21:09.923Z,51.30
2017-10-02T21:23:12.942Z,42.87
2017-10-02T21:33:00.184Z,42.33
2017-10-02T21:35:06.906Z,51.90
2017-10-02T21:37:09.388Z,43.73
2017-10-02T21:41:48.907Z,50.50
2017-10-02T21:46:38.852Z,53.77
2017-10-02T21:51:28.811Z,34.87
2017-10-02T21:53:29.982Z,40.53
2017-10-02T21:55:31.591Z,49.93
2017-10-02T21:57:39.686Z,47.87
2017-10-02T22:02:17.414Z,47.80
2017-10-02T22:09:36.201Z,53.40
2017-10-02T22:11:38.930Z,48.17
2017-10-02T22:13:58.440Z,50.97
2017-10-02T22:26:36.344Z,40.63
2017-10-02T22:31:11.531Z,50.80
2017-10-02T22:33:13.727Z,40.23
2017-10-02T22:35:18.084Z,28.80
2017-10-02T22:40:05.245Z,60.60
2017-10-02T22:42:06.506Z,45.07
2017-10-02T22:44:15.208Z,51.70
2017-10-02T22:46:17.335Z,55.13
2017-10-02T22:53:34.180Z,55.33
2017-10-02T22:55:35.999Z,50.93
2017-10-02T23:03:10.007Z,46.77
2017-10-02T23:15:32.893Z,44.33
2017-10-02T23:30:37.732Z,51.30
2017-10-02T23:32:39.493Z,50.53
2017-10-02T23:37:34.350Z,49.57
2017-10-02T23:39:36.461Z,38.10
2017-10-02T23:42:02.514Z,57.97
2017-10-02T23:44:05.886Z,51.20
2017-10-02T23:46:07.374Z,48.23
2017-10-02T23:48:09.925Z,57.57
2017-10-02T23:50:13.074Z,54.27
